Time;durP1;ratioP1;P1;durP2;ratioP2;P2;SDS_P1;SDS_P2;PMS_P1;PMS_P2;Temp;Humidity;BMP_temperature;BMP_pressure;BME280_temperature;BME280_humidity;BME280_pressure;Samples;Min_cycle;Max_cycle;Signal;HPM_P1;HPM_P2
2022/06/20 00:00:48;;;;;;;6.18;5.57;;;12.10;99.90;;;;;;4682206;30;20405;-80
2022/06/20 00:03:25;;;;;;;10.45;6.80;;;12.10;99.90;;;;;;4667525;30;20050;-80
2022/06/20 00:05:51;;;;;;;8.00;5.78;;;12.10;99.90;;;;;;4680465;30;20046;-81
2022/06/20 00:08:17;;;;;;;11.15;7.03;;;12.10;99.90;;;;;;4681816;30;20418;-80
2022/06/20 00:10:44;;;;;;;7.63;6.88;;;12.10;99.90;;;;;;4682590;30;20081;-80
2022/06/20 00:13:34;;;;;;;9.85;7.28;;;12.00;99.90;;;;;;4681168;30;20085;-80
2022/06/20 00:16:01;;;;;;;8.10;6.32;;;12.00;99.90;;;;;;4674980;30;20120;-79
2022/06/20 00:18:28;;;;;;;9.65;6.30;;;11.90;99.90;;;;;;4681812;30;20089;-80
2022/06/20 00:20:54;;;;;;;10.00;7.75;;;11.80;99.90;;;;;;4696091;30;20136;-80
2022/06/20 00:23:20;;;;;;;10.38;6.13;;;11.80;99.90;;;;;;4681339;30;20145;-80
2022/06/20 00:25:46;;;;;;;7.53;6.63;;;11.70;99.90;;;;;;4679741;30;20045;-79
2022/06/20 00:28:13;;;;;;;10.85;7.28;;;11.70;99.90;;;;;;4665921;30;20046;-80
2022/06/20 00:30:40;;;;;;;7.82;6.80;;;11.70;99.90;;;;;;4680660;30;20049;-80
2022/06/20 00:33:06;;;;;;;7.80;6.10;;;11.70;99.90;;;;;;4679802;30;20053;-80
2022/06/20 00:35:33;;;;;;;12.57;6.45;;;11.60;99.90;;;;;;4666603;30;20050;-80
2022/06/20 00:38:01;;;;;;;8.05;5.80;;;11.60;99.90;;;;;;4681590;30;20120;-80
2022/06/20 00:40:37;;;;;;;7.13;5.53;;;11.60;99.90;;;;;;4681548;30;20046;-80
2022/06/20 00:43:05;;;;;;;8.32;5.88;;;11.60;99.90;;;;;;4693599;30;20081;-80
2022/06/20 00:45:41;;;;;;;8.27;5.70;;;11.60;99.90;;;;;;4682215;30;20177;-80
2022/06/20 00:48:14;;;;;;;6.43;5.55;;;11.60;99.90;;;;;;4676580;30;20058;-80
2022/06/20 00:50:40;;;;;;;9.52;5.63;;;11.60;99.90;;;;;;4651353;30;20050;-80
2022/06/20 00:53:16;;;;;;;9.70;5.20;;;11.50;99.90;;;;;;4656415;30;20132;-80
2022/06/20 00:55:56;;;;;;;6.78;5.13;;;11.50;99.90;;;;;;4667167;30;20050;-80
2022/06/20 00:58:59;;;;;;;7.63;4.63;;;11.60;99.90;;;;;;4681452;30;20458;-80
2022/06/20 01:01:33;;;;;;;7.20;4.47;;;11.60;99.90;;;;;;4642492;30;1066421;-80
2022/06/20 01:04:06;;;;;;;9.50;4.80;;;11.50;99.90;;;;;;4682393;30;20077;-80
2022/06/20 01:06:37;;;;;;;7.47;4.32;;;11.50;99.90;;;;;;4683197;30;20129;-80
2022/06/20 01:09:08;;;;;;;6.93;4.63;;;11.50;99.90;;;;;;4682482;30;20182;-80
2022/06/20 01:11:49;;;;;;;6.50;4.85;;;11.40;99.90;;;;;;4689996;30;20049;-80
2022/06/20 01:14:33;;;;;;;7.38;4.90;;;11.40;99.90;;;;;;4683012;30;20042;-80
2022/06/20 01:17:00;;;;;;;6.45;4.88;;;11.30;99.90;;;;;;4682979;30;20050;-80
2022/06/20 01:19:50;;;;;;;9.40;5.05;;;11.30;99.90;;;;;;4682803;30;20065;-80
2022/06/20 01:22:36;;;;;;;8.98;5.05;;;11.20;99.90;;;;;;4682416;30;20119;-80
2022/06/20 01:25:25;;;;;;;8.98;4.97;;;11.20;99.90;;;;;;4683461;30;20144;-80
2022/06/20 01:27:51;;;;;;;9.18;4.82;;;11.20;99.90;;;;;;4669785;30;20132;-80
2022/06/20 01:30:19;;;;;;;10.98;5.65;;;11.20;99.90;;;;;;4682817;30;20136;-79
2022/06/20 01:32:45;;;;;;;11.60;5.57;;;11.20;99.90;;;;;;4669069;30;20406;-80
2022/06/20 01:37:23;;;;;;;8.18;4.93;;;11.30;99.90;;;;;;4682958;30;20042;-80
2022/06/20 01:38:01;;;;;;;8.43;5.32;;;11.20;99.90;;;;;;4683344;30;20061;-80
2022/06/20 01:40:28;;;;;;;8.05;5.43;;;11.20;99.90;;;;;;4682835;30;20090;-80
2022/06/20 01:42:54;;;;;;;11.98;5.22;;;11.20;99.90;;;;;;4683976;30;20050;-80
2022/06/20 01:48:17;;;;;;;9.80;5.30;;;11.40;99.90;;;;;;4683391;30;20380;-80
2022/06/20 01:50:45;;;;;;;6.97;4.30;;;11.30;99.90;;;;;;4663517;30;20056;-80
2022/06/20 01:53:13;;;;;;;9.80;5.57;;;11.40;99.90;;;;;;4684546;30;20517;-80
2022/06/20 01:55:42;;;;;;;11.77;4.95;;;11.40;99.90;;;;;;4682435;30;20048;-80
2022/06/20 01:58:30;;;;;;;11.57;5.07;;;11.40;99.90;;;;;;4663312;30;20054;-80
2022/06/20 02:00:58;;;;;;;6.47;4.20;;;11.40;99.90;;;;;;4681930;30;20587;-80
2022/06/20 02:03:23;;;;;;;6.97;4.13;;;11.40;99.90;;;;;;4670584;30;20483;-80
2022/06/20 02:05:54;;;;;;;8.10;4.30;;;11.40;99.90;;;;;;4683986;30;20077;-80
2022/06/20 02:08:21;;;;;;;6.80;4.00;;;11.30;99.90;;;;;;4685372;30;20084;-80
2022/06/20 02:11:07;;;;;;;9.70;5.00;;;11.30;99.90;;;;;;4671765;30;20140;-80
2022/06/20 02:13:43;;;;;;;7.68;4.70;;;11.20;99.90;;;;;;4687229;30;20101;-81
2022/06/20 02:16:13;;;;;;;11.55;5.30;;;11.10;99.90;;;;;;4681083;30;20506;-80
2022/06/20 02:18:42;;;;;;;8.98;4.35;;;11.10;99.90;;;;;;4695403;30;20042;-80
2022/06/20 02:21:20;;;;;;;7.88;4.97;;;11.10;99.90;;;;;;4680384;30;20042;-80
2022/06/20 02:23:49;;;;;;;11.85;5.32;;;11.10;99.90;;;;;;4667648;30;20045;-84
2022/06/20 02:26:18;;;;;;;7.72;5.30;;;11.00;99.90;;;;;;4680877;30;20075;-81
2022/06/20 02:29:23;;;;;;;7.45;5.63;;;11.00;99.90;;;;;;4680531;30;20093;-80
2022/06/20 02:31:55;;;;;;;9.70;6.32;;;11.00;99.90;;;;;;4661796;30;20081;-80
2022/06/20 02:34:26;;;;;;;6.70;5.43;;;10.90;99.90;;;;;;4667064;30;20192;-80
2022/06/20 02:36:54;;;;;;;9.93;6.00;;;11.00;99.90;;;;;;4680328;30;20305;-80
2022/06/20 02:39:21;;;;;;;8.60;5.72;;;10.80;99.90;;;;;;4680482;30;20069;-80
2022/06/20 02:41:52;;;;;;;5.60;4.57;;;10.80;99.90;;;;;;4681661;30;20473;-80
2022/06/20 02:44:20;;;;;;;9.63;5.90;;;10.80;99.90;;;;;;4681295;30;20077;-80
2022/06/20 02:46:48;;;;;;;11.20;5.97;;;10.70;99.90;;;;;;4680652;30;20042;-80
2022/06/20 02:49:18;;;;;;;10.55;8.20;;;10.60;99.90;;;;;;4680282;30;20064;-79
2022/06/20 02:51:50;;;;;;;10.57;9.50;;;10.50;99.90;;;;;;4681096;30;20391;-80
2022/06/20 02:54:17;;;;;;;11.00;9.90;;;10.50;99.90;;;;;;4679988;30;20054;-79
2022/06/20 02:56:58;;;;;;;11.75;10.55;;;10.40;99.90;;;;;;4680958;30;20038;-80
2022/06/20 02:59:32;;;;;;;12.43;10.55;;;10.40;99.90;;;;;;4683402;30;20104;-80
2022/06/20 03:02:12;;;;;;;11.85;10.82;;;10.20;99.90;;;;;;4704730;24;20058;-85
2022/06/20 03:04:41;;;;;;;10.68;9.60;;;10.20;99.90;;;;;;4689671;30;20061;-85
2022/06/20 03:07:13;;;;;;;10.30;9.50;;;10.20;99.90;;;;;;4689251;30;20050;-85
2022/06/20 03:09:42;;;;;;;12.25;10.95;;;10.10;99.90;;;;;;4693282;30;20412;-85
2022/06/20 03:12:09;;;;;;;11.90;10.73;;;10.00;99.90;;;;;;4671206;30;20077;-85
2022/06/20 03:14:39;;;;;;;12.38;11.18;;;10.00;99.90;;;;;;4669254;30;20490;-85
2022/06/20 03:17:06;;;;;;;11.52;10.43;;;10.00;99.90;;;;;;4682977;30;20413;-84
2022/06/20 03:19:35;;;;;;;11.57;10.32;;;10.00;99.90;;;;;;4697956;30;20048;-85
2022/06/20 03:22:05;;;;;;;11.32;10.20;;;9.90;99.90;;;;;;4693519;30;20076;-85
2022/06/20 03:24:32;;;;;;;12.90;11.43;;;9.90;99.90;;;;;;4680059;30;20042;-85
2022/06/20 03:26:59;;;;;;;14.77;10.82;;;9.80;99.90;;;;;;4674068;30;20081;-85
2022/06/20 03:29:25;;;;;;;11.50;10.30;;;9.90;99.90;;;;;;4693885;30;20132;-85
2022/06/20 03:31:53;;;;;;;11.35;9.80;;;9.80;99.90;;;;;;4681114;30;20124;-86
2022/06/20 03:34:18;;;;;;;10.82;9.75;;;9.90;99.90;;;;;;4688960;30;20042;-84
2022/06/20 03:36:47;;;;;;;10.95;10.02;;;9.80;99.90;;;;;;4674254;30;20045;-84
2022/06/20 03:39:13;;;;;;;12.02;10.85;;;9.80;99.90;;;;;;4691185;30;20081;-85
2022/06/20 03:41:40;;;;;;;11.57;10.05;;;9.80;99.90;;;;;;4675902;30;20145;-84
2022/06/20 03:44:23;;;;;;;10.20;9.40;;;9.70;99.90;;;;;;4682678;30;20050;-85
2022/06/20 03:46:54;;;;;;;10.45;9.43;;;9.70;99.90;;;;;;4690182;30;20069;-84
2022/06/20 03:49:27;;;;;;;11.02;8.77;;;9.70;99.90;;;;;;4668445;30;20050;-85
2022/06/20 03:52:20;;;;;;;9.73;8.60;;;9.70;99.90;;;;;;4668757;30;20517;-84
2022/06/20 03:55:17;;;;;;;9.50;8.70;;;9.70;99.90;;;;;;4674707;30;20058;-85
2022/06/20 03:57:52;;;;;;;9.75;8.88;;;9.70;99.90;;;;;;4682372;30;20085;-84
2022/06/20 04:00:27;;;;;;;9.85;9.02;;;9.70;99.90;;;;;;4677526;30;20148;-85
2022/06/20 04:03:06;;;;;;;10.02;9.13;;;9.70;99.90;;;;;;4673235;30;20042;-85
2022/06/20 04:05:58;;;;;;;9.82;8.60;;;9.60;99.90;;;;;;4682745;30;20061;-86
2022/06/20 04:11:51;;;;;;;9.40;7.93;;;9.60;99.90;;;;;;4673881;30;20053;-84
2022/06/20 04:14:24;;;;;;;10.35;8.07;;;9.60;99.90;;;;;;4699685;30;20155;-84
2022/06/20 04:16:54;;;;;;;9.73;8.70;;;9.60;99.90;;;;;;4685411;30;20057;-84
2022/06/20 04:19:35;;;;;;;11.65;9.57;;;9.60;99.90;;;;;;4685232;30;20042;-85
2022/06/20 04:22:19;;;;;;;10.90;9.02;;;9.70;99.90;;;;;;4693349;30;20052;-85
2022/06/20 04:24:54;;;;;;;10.20;9.27;;;9.80;99.90;;;;;;4670127;30;20057;-85
2022/06/20 04:27:38;;;;;;;10.23;9.13;;;9.90;99.90;;;;;;4675842;30;20136;-85
2022/06/20 04:30:32;;;;;;;15.00;10.05;;;10.00;99.90;;;;;;4685758;30;20046;-86
2022/06/20 04:33:13;;;;;;;9.70;8.68;;;10.40;99.90;;;;;;4682290;30;20053;-85
2022/06/20 04:35:47;;;;;;;9.07;8.18;;;10.70;99.90;;;;;;4670274;30;20066;-85
2022/06/20 04:38:20;;;;;;;9.80;8.40;;;11.00;99.90;;;;;;4691476;30;20042;-86
2022/06/20 04:40:58;;;;;;;9.75;8.55;;;11.40;99.90;;;;;;4688331;30;20053;-85
2022/06/20 04:43:33;;;;;;;9.73;6.78;;;11.50;99.90;;;;;;4693392;30;20127;-85
2022/06/20 04:46:10;;;;;;;8.95;6.82;;;11.90;99.90;;;;;;4690840;30;20060;-85
2022/06/20 04:48:36;;;;;;;9.95;6.50;;;12.20;99.90;;;;;;4678543;30;20058;-85
2022/06/20 04:51:07;;;;;;;7.63;4.95;;;12.50;99.90;;;;;;4680092;30;20048;-85
2022/06/20 04:53:35;;;;;;;7.97;5.55;;;12.60;99.90;;;;;;4673726;30;20041;-85
2022/06/20 04:56:06;;;;;;;8.30;5.47;;;12.50;99.90;;;;;;4674471;30;20141;-86
2022/06/20 04:59:16;;;;;;;7.63;5.60;;;12.30;99.90;;;;;;4686788;30;20046;-85
2022/06/20 05:01:42;;;;;;;8.57;5.03;;;12.40;99.90;;;;;;4667626;30;20128;-85
2022/06/20 05:04:17;;;;;;;7.10;5.25;;;12.70;99.90;;;;;;4675742;30;20542;-85
2022/06/20 05:06:43;;;;;;;7.53;4.93;;;13.00;99.90;;;;;;4684352;30;20457;-85
2022/06/20 05:09:32;;;;;;;7.57;4.70;;;13.30;99.90;;;;;;4688576;30;20379;-85
2022/06/20 05:12:22;;;;;;;5.80;4.18;;;13.60;99.90;;;;;;4676471;30;20367;-83
2022/06/20 05:15:04;;;;;;;6.78;4.07;;;14.00;99.90;;;;;;4682544;30;20058;-84
2022/06/20 05:17:32;;;;;;;7.38;4.10;;;14.30;99.90;;;;;;4690663;30;20181;-85
2022/06/20 05:20:05;;;;;;;6.72;3.72;;;14.60;99.90;;;;;;4690649;30;20042;-85
2022/06/20 05:22:38;;;;;;;7.30;4.00;;;14.70;99.90;;;;;;4680081;30;20122;-86
2022/06/20 05:25:08;;;;;;;6.72;3.28;;;14.90;99.90;;;;;;4676802;30;20061;-86
2022/06/20 05:27:51;;;;;;;9.27;4.10;;;15.00;99.90;;;;;;4678441;30;20093;-85
2022/06/20 05:30:20;;;;;;;6.38;3.95;;;15.10;99.90;;;;;;4680325;30;20058;-85
2022/06/20 05:33:42;;;;;;;5.47;3.42;;;15.10;99.90;;;;;;4672604;30;20104;-85
2022/06/20 05:36:58;;;;;;;6.60;3.78;;;15.30;99.90;;;;;;4709525;30;20587;-86
2022/06/20 05:39:26;;;;;;;10.57;3.97;;;15.40;99.90;;;;;;4697872;30;20056;-87
2022/06/20 05:41:51;;;;;;;4.45;3.60;;;15.50;99.90;;;;;;4675746;30;20045;-86
2022/06/20 05:44:17;;;;;;;5.80;4.25;;;15.60;99.90;;;;;;4688410;30;20057;-86
2022/06/20 05:46:50;;;;;;;5.95;4.05;;;15.60;99.90;;;;;;4671365;30;20046;-86
2022/06/20 05:49:29;;;;;;;;;;;15.70;99.90;;;;;;4690346;30;20108;-85
2022/06/20 05:51:56;;;;;;;7.22;3.83;;;15.70;99.90;;;;;;4690490;30;19927;-87
2022/06/20 05:54:29;;;;;;;8.45;4.43;;;15.70;99.90;;;;;;4690909;30;20079;-87
2022/06/20 05:57:19;;;;;;;7.97;4.70;;;15.80;99.90;;;;;;4686569;30;20447;-87
2022/06/20 06:00:16;;;;;;;6.47;3.97;;;15.80;99.90;;;;;;4670101;30;20402;-87
2022/06/20 06:02:54;;;;;;;9.30;4.68;;;15.70;99.90;;;;;;4672774;30;20054;-87
2022/06/20 06:05:28;;;;;;;7.10;3.97;;;15.60;99.90;;;;;;4679863;30;20049;-87
2022/06/20 06:08:09;;;;;;;7.95;3.88;;;15.50;99.90;;;;;;4681842;30;20046;-87
2022/06/20 06:10:46;;;;;;;8.38;4.03;;;15.30;99.90;;;;;;4680822;30;20375;-87
2022/06/20 06:13:36;;;;;;;9.80;4.55;;;15.30;99.90;;;;;;4680573;30;20067;-87
2022/06/20 06:19:20;;;;;;;9.32;4.18;;;15.20;99.90;;;;;;4673732;30;20398;-85
2022/06/20 06:21:47;;;;;;;10.15;4.18;;;15.10;99.90;;;;;;4677934;30;20046;-86
2022/06/20 06:24:16;;;;;;;9.73;4.60;;;15.00;99.90;;;;;;4670243;30;20071;-86
2022/06/20 06:26:44;;;;;;;8.63;3.75;;;14.90;99.90;;;;;;4681126;30;20050;-87
2022/06/20 06:29:20;;;;;;;8.23;4.28;;;14.90;99.90;;;;;;4685101;30;20089;-86
2022/06/20 06:31:49;;;;;;;10.50;4.55;;;14.80;99.90;;;;;;4684990;30;20038;-87
2022/06/20 06:34:49;;;;;;;10.30;4.15;;;14.80;99.90;;;;;;4669500;30;20128;-87
2022/06/20 06:37:21;;;;;;;7.78;3.80;;;14.90;99.90;;;;;;4674423;30;20050;-86
2022/06/20 06:40:00;;;;;;;11.20;5.30;;;14.90;99.90;;;;;;4684206;30;20403;-87
2022/06/20 06:42:26;;;;;;;9.00;4.40;;;15.00;99.90;;;;;;4669704;30;20136;-87
2022/06/20 06:44:53;;;;;;;10.90;4.50;;;15.10;99.90;;;;;;4684085;30;20037;-87
2022/06/20 06:47:40;;;;;;;9.40;4.68;;;15.20;99.90;;;;;;4669440;30;20054;-87
2022/06/20 06:50:23;;;;;;;11.32;4.78;;;15.30;99.90;;;;;;4669504;30;20092;-86
2022/06/20 06:53:11;;;;;;;12.18;4.57;;;15.40;99.90;;;;;;4669690;30;20455;-86
2022/06/20 06:55:45;;;;;;;12.18;4.47;;;15.50;99.90;;;;;;4683715;30;20461;-86
2022/06/20 06:58:35;;;;;;;9.63;4.15;;;15.50;99.90;;;;;;4669093;30;20050;-87
2022/06/20 07:01:14;;;;;;;8.63;4.03;;;15.60;99.90;;;;;;4669320;30;20406;-87
2022/06/20 07:04:04;;;;;;;8.70;4.10;;;15.60;99.90;;;;;;4669483;30;20506;-86
2022/06/20 07:06:33;;;;;;;11.43;4.78;;;15.60;99.90;;;;;;4669461;30;20084;-87
2022/06/20 07:09:29;;;;;;;9.48;4.13;;;15.60;99.90;;;;;;4669177;30;20409;-87
2022/06/20 07:12:11;;;;;;;8.88;5.15;;;15.70;99.90;;;;;;4669011;30;20092;-85
2022/06/20 07:14:41;;;;;;;8.25;4.57;;;16.00;99.90;;;;;;4669009;30;20054;-87
2022/06/20 07:17:16;;;;;;;10.63;4.93;;;16.20;99.90;;;;;;4669178;30;20083;-87
2022/06/20 07:19:47;;;;;;;8.25;3.45;;;16.20;99.90;;;;;;4683011;30;20136;-87
2022/06/20 07:22:14;;;;;;;7.88;3.60;;;16.20;99.90;;;;;;4668965;30;20499;-87
2022/06/20 07:24:41;;;;;;;6.65;4.28;;;16.20;99.90;;;;;;4683192;30;20057;-87
2022/06/20 07:27:19;;;;;;;10.13;4.10;;;16.00;99.90;;;;;;4668710;30;20110;-86
2022/06/20 07:29:55;;;;;;;7.80;3.70;;;16.00;99.90;;;;;;4682782;30;20046;-87
2022/06/20 07:32:30;;;;;;;8.40;4.50;;;16.00;99.90;;;;;;4683055;30;20182;-86
2022/06/20 07:34:59;;;;;;;11.15;4.00;;;16.10;99.90;;;;;;4668883;30;20054;-86
2022/06/20 07:37:31;;;;;;;10.98;4.57;;;16.40;99.90;;;;;;4682934;30;20498;-86
2022/06/20 07:40:25;;;;;;;7.00;4.72;;;16.80;99.90;;;;;;4668515;30;20046;-87
2022/06/20 07:42:58;;;;;;;7.95;5.45;;;17.50;99.90;;;;;;4680658;30;20061;-87
2022/06/20 07:45:30;;;;;;;;;;;18.30;99.90;;;;;;4668968;30;20046;-87
2022/06/20 07:48:06;;;;;;;11.27;7.45;;;19.20;99.90;;;;;;4682495;30;19924;-88
2022/06/20 07:50:44;;;;;;;8.63;7.00;;;19.70;99.90;;;;;;4668253;30;20048;-88
2022/06/20 07:53:21;;;;;;;8.02;6.88;;;20.00;99.90;;;;;;4668373;30;20046;-87
2022/06/20 07:55:53;;;;;;;9.57;6.45;;;20.10;99.90;;;;;;4668208;30;20053;-87
2022/06/20 07:58:37;;;;;;;7.88;5.93;;;20.10;99.90;;;;;;4668284;30;20038;-87
2022/06/20 08:01:13;;;;;;;8.93;6.80;;;20.00;99.90;;;;;;4668334;30;20042;-87
2022/06/20 08:03:49;;;;;;;9.95;6.22;;;19.70;99.90;;;;;;4668420;30;20050;-87
2022/06/20 08:06:30;;;;;;;7.78;5.75;;;19.40;99.90;;;;;;4668497;30;20136;-87
2022/06/20 08:09:18;;;;;;;8.32;6.05;;;19.70;99.90;;;;;;4682612;30;20533;-88
2022/06/20 08:12:09;;;;;;;10.80;6.28;;;20.30;99.90;;;;;;4667773;30;20533;-87
2022/06/20 08:14:46;;;;;;;10.10;6.38;;;20.00;99.90;;;;;;4668206;30;20388;-88
2022/06/20 08:17:13;;;;;;;6.03;5.28;;;20.10;99.90;;;;;;4682748;30;20525;-87
2022/06/20 08:19:41;;;;;;;5.53;4.57;;;20.80;99.90;;;;;;4667654;30;20081;-87
2022/06/20 08:22:27;;;;;;;6.55;5.57;;;21.70;99.90;;;;;;4667815;30;20518;-89
2022/06/20 08:25:02;;;;;;;5.85;4.72;;;22.20;99.90;;;;;;4682270;30;20058;-88
2022/06/20 08:27:42;;;;;;;8.77;6.22;;;22.10;99.30;;;;;;4682068;30;20061;-88
2022/06/20 08:30:30;;;;;;;10.25;5.25;;;21.80;99.90;;;;;;4668075;30;20055;-87
2022/06/20 08:33:03;;;;;;;6.95;4.72;;;21.30;98.70;;;;;;4682273;30;20550;-87
2022/06/20 08:36:05;;;;;;;6.22;4.97;;;20.70;97.10;;;;;;4681966;30;20509;-87
2022/06/20 08:38:52;;;;;;;6.22;5.63;;;20.10;96.50;;;;;;4665824;30;20112;-86
2022/06/20 08:41:55;;;;;;;6.32;5.32;;;19.90;97.50;;;;;;4667582;30;20188;-87
2022/06/20 08:44:52;;;;;;;7.30;6.05;;;20.40;95.70;;;;;;4681915;30;20530;-87
2022/06/20 08:47:54;;;;;;;8.80;5.95;;;21.10;94.40;;;;;;4682091;30;20136;-87
2022/06/20 08:50:38;;;;;;;6.32;5.40;;;21.90;92.70;;;;;;4682105;30;20058;-87
2022/06/20 08:53:27;;;;;;;4.60;4.10;;;22.30;91.30;;;;;;4682058;30;20046;-88
2022/06/20 08:56:20;;;;;;;6.15;4.85;;;22.30;81.40;;;;;;4666819;30;20081;-88
2022/06/20 08:58:58;;;;;;;7.03;4.25;;;22.20;82.40;;;;;;4667510;30;20050;-87
2022/06/20 09:01:50;;;;;;;6.95;2.70;;;22.60;82.90;;;;;;4682010;30;20085;-88
2022/06/20 09:04:32;;;;;;;5.72;2.70;;;23.20;78.80;;;;;;4667371;30;20077;-89
2022/06/20 09:07:23;;;;;;;6.70;2.95;;;23.40;76.70;;;;;;4667321;30;20050;-88
2022/06/20 09:10:07;;;;;;;5.43;2.55;;;23.70;71.50;;;;;;4681560;30;20050;-88
2022/06/20 09:12:42;;;;;;;7.43;3.15;;;24.20;73.00;;;;;;4667264;30;20085;-88
2022/06/20 09:15:30;;;;;;;8.70;2.85;;;24.70;69.30;;;;;;4681368;30;20162;-88
2022/06/20 09:18:20;;;;;;;4.57;2.70;;;25.10;70.80;;;;;;4661211;30;20510;-86
2022/06/20 09:21:03;;;;;;;5.10;2.40;;;25.50;66.20;;;;;;4681412;30;20387;-86
2022/06/20 09:23:41;;;;;;;3.63;2.63;;;25.80;65.70;;;;;;4666812;30;20042;-86
2022/06/20 09:26:19;;;;;;;4.70;2.30;;;25.70;63.60;;;;;;4681254;30;20054;-86
2022/06/20 09:29:14;;;;;;;3.88;2.40;;;25.10;64.00;;;;;;4667110;30;20046;-86
2022/06/20 09:32:14;;;;;;;4.15;2.38;;;24.30;62.10;;;;;;4659133;30;20062;-86
2022/06/20 09:34:48;;;;;;;3.47;2.17;;;23.90;64.60;;;;;;4666764;30;20042;-86
2022/06/20 09:37:41;;;;;;;4.95;2.20;;;23.80;64.20;;;;;;4681415;30;20045;-87
2022/06/20 09:40:25;;;;;;;3.85;2.08;;;23.40;64.10;;;;;;4681106;30;20152;-86
2022/06/20 09:42:59;;;;;;;4.47;2.20;;;23.20;65.70;;;;;;4681066;30;20511;-86
2022/06/20 09:45:37;;;;;;;3.65;2.15;;;23.20;66.10;;;;;;4680984;30;20418;-86
2022/06/20 09:48:26;;;;;;;2.63;2.15;;;22.90;64.70;;;;;;4681068;30;20116;-85
2022/06/20 09:51:17;;;;;;;6.53;2.40;;;22.60;66.00;;;;;;4666811;30;20116;-86
2022/06/20 09:53:57;;;;;;;4.20;2.70;;;22.20;67.30;;;;;;4681006;30;20058;-86
2022/06/20 09:56:57;;;;;;;4.57;2.50;;;22.40;71.00;;;;;;4681013;30;20054;-86
2022/06/20 09:59:40;;;;;;;5.32;2.53;;;23.10;70.80;;;;;;4680730;30;20046;-86
2022/06/20 10:02:25;;;;;;;4.30;2.25;;;23.80;69.30;;;;;;4667104;30;20503;-85
2022/06/20 10:05:09;;;;;;;4.32;2.20;;;24.50;68.60;;;;;;4666639;30;20046;-86
2022/06/20 10:07:56;;;;;;;5.40;2.50;;;24.80;64.20;;;;;;4680871;30;20437;-86
2022/06/20 10:10:39;;;;;;;5.60;2.17;;;24.60;62.40;;;;;;4680777;30;20054;-85
2022/06/20 10:13:29;;;;;;;5.30;2.08;;;24.10;61.40;;;;;;4666487;30;20150;-85
2022/06/20 10:16:23;;;;;;;5.25;2.63;;;23.50;61.60;;;;;;4680621;30;20116;-90
2022/06/20 10:19:07;;;;;;;4.53;2.35;;;23.20;62.80;;;;;;4680666;30;20093;-85
2022/06/20 10:21:52;;;;;;;6.75;3.10;;;23.50;65.80;;;;;;4666249;30;20057;-85
2022/06/20 10:24:37;;;;;;;5.07;2.78;;;24.10;65.90;;;;;;4666282;30;20057;-86
2022/06/20 10:27:36;;;;;;;7.43;2.53;;;24.60;65.90;;;;;;4666685;30;20054;-86
2022/06/20 10:30:07;;;;;;;3.65;2.03;;;24.90;62.70;;;;;;4680473;30;20069;-86
2022/06/20 10:32:55;;;;;;;4.95;2.42;;;25.10;65.30;;;;;;4680573;30;20100;-86
2022/06/20 10:35:33;;;;;;;6.18;2.70;;;25.40;62.70;;;;;;4680621;30;20513;-87
2022/06/20 10:38:24;;;;;;;5.35;2.30;;;25.70;62.30;;;;;;4680319;30;20049;-86
2022/06/20 10:41:01;;;;;;;5.13;2.28;;;25.80;62.20;;;;;;4680433;30;20042;-86
2022/06/20 10:43:44;;;;;;;5.70;2.88;;;26.10;63.10;;;;;;4680773;30;20423;-86
2022/06/20 10:46:31;;;;;;;5.53;1.92;;;26.30;60.30;;;;;;4666531;30;20418;-87
2022/06/20 10:49:15;;;;;;;4.57;1.95;;;26.00;59.90;;;;;;4666288;30;20060;-85
2022/06/20 10:51:48;;;;;;;6.47;2.50;;;25.60;59.40;;;;;;4680151;30;20057;-86
2022/06/20 10:54:23;;;;;;;4.35;2.17;;;24.90;61.10;;;;;;4680281;30;20124;-87
2022/06/20 10:57:08;;;;;;;3.85;2.10;;;24.10;60.60;;;;;;4680409;30;20045;-87
2022/06/20 11:00:10;;;;;;;4.43;2.40;;;23.40;61.80;;;;;;4666295;30;20454;-85
2022/06/20 11:02:54;;;;;;;4.97;2.53;;;23.40;63.60;;;;;;4680171;30;20045;-85
2022/06/20 11:05:26;;;;;;;6.95;2.75;;;23.70;63.70;;;;;;4680200;30;20056;-86
2022/06/20 11:08:13;;;;;;;4.53;2.78;;;24.30;65.10;;;;;;4665860;30;20046;-86
2022/06/20 11:11:16;;;;;;;5.60;2.67;;;24.90;63.60;;;;;;4680125;30;20076;-87
2022/06/20 11:13:59;;;;;;;3.88;2.25;;;25.50;62.50;;;;;;4680724;30;20120;-87
2022/06/20 11:17:15;;;;;;;5.72;2.35;;;26.10;59.60;;;;;;4680173;30;20061;-87
2022/06/20 11:20:17;;;;;;;5.55;2.70;;;26.60;60.30;;;;;;4637814;30;20090;-87
2022/06/20 11:23:13;;;;;;;5.53;2.53;;;26.50;58.50;;;;;;4683149;30;20058;-87
2022/06/20 11:26:03;;;;;;;4.85;2.55;;;25.60;57.00;;;;;;4683407;30;20296;-84
2022/06/20 11:28:45;;;;;;;7.05;2.90;;;24.70;57.70;;;;;;4683006;30;20053;-86
2022/06/20 11:31:25;;;;;;;7.28;3.03;;;24.20;60.90;;;;;;4668989;30;20368;-87
2022/06/20 11:34:13;;;;;;;7.35;3.20;;;24.50;62.70;;;;;;4683228;30;20136;-87
2022/06/20 11:36:56;;;;;;;7.70;3.10;;;24.90;64.60;;;;;;4668988;30;20049;-87
2022/06/20 11:39:28;;;;;;;5.75;2.92;;;25.20;61.20;;;;;;4683016;30;20049;-86
2022/06/20 11:42:07;;;;;;;5.43;3.40;;;25.50;61.20;;;;;;4668911;30;20050;-86
2022/06/20 11:44:42;;;;;;;4.38;3.13;;;25.70;60.20;;;;;;4683166;30;20057;-87
2022/06/20 11:47:31;;;;;;;6.38;3.20;;;25.70;60.90;;;;;;4683323;30;20053;-87
2022/06/20 11:50:28;;;;;;;4.18;2.80;;;25.90;59.80;;;;;;4682948;30;20058;-86
2022/06/20 11:52:57;;;;;;;3.60;2.17;;;26.10;58.90;;;;;;4668341;30;20092;-86
2022/06/20 11:55:28;;;;;;;4.20;2.85;;;26.30;60.40;;;;;;4682603;30;20050;-87
2022/06/20 11:58:11;;;;;;;6.35;2.30;;;26.70;59.20;;;;;;4682662;30;20049;-88
2022/06/20 12:00:48;;;;;;;5.55;2.88;;;26.90;60.40;;;;;;4682887;30;20057;-86
2022/06/20 12:03:46;;;;;;;4.57;2.72;;;27.10;57.70;;;;;;4668342;30;20526;-87
2022/06/20 12:06:47;;;;;;;4.60;2.72;;;27.30;58.80;;;;;;4682518;30;20334;-87
2022/06/20 12:09:26;;;;;;;6.13;2.83;;;27.20;58.00;;;;;;4682565;30;20168;-85
2022/06/20 12:12:07;;;;;;;3.90;2.70;;;26.40;54.60;;;;;;4668402;30;20057;-86
2022/06/20 12:14:38;;;;;;;6.72;3.05;;;25.60;55.90;;;;;;4682434;30;20061;-86
2022/06/20 12:17:30;;;;;;;6.65;2.92;;;25.40;58.30;;;;;;4682498;30;20089;-86
2022/06/20 12:26:06;;;;;;;4.75;3.08;;;23.80;61.00;;;;;;4682232;30;20057;-86
2022/06/20 12:28:38;;;;;;;5.63;3.00;;;23.90;61.30;;;;;;4675853;30;20065;-86
2022/06/20 12:31:18;;;;;;;5.85;3.33;;;24.20;61.40;;;;;;4667094;30;20410;-86
2022/06/20 12:33:59;;;;;;;3.58;2.72;;;24.60;62.40;;;;;;4682201;30;20050;-86
2022/06/20 12:36:30;;;;;;;4.05;2.72;;;25.00;59.30;;;;;;4681963;30;20050;-86
2022/06/20 12:39:05;;;;;;;3.90;3.10;;;25.40;59.30;;;;;;4681731;30;20046;-85
2022/06/20 12:41:37;;;;;;;4.05;3.08;;;25.80;61.30;;;;;;4668090;30;20073;-86
2022/06/20 12:44:03;;;;;;;4.78;3.17;;;26.10;59.10;;;;;;4667636;30;20531;-87
2022/06/20 12:46:42;;;;;;;4.63;3.17;;;26.20;59.20;;;;;;4682019;30;20062;-87
2022/06/20 12:49:22;;;;;;;6.28;3.10;;;26.30;59.80;;;;;;4681885;30;20438;-87
2022/06/20 12:52:13;;;;;;;3.97;3.47;;;26.40;57.60;;;;;;4667554;30;20147;-86
2022/06/20 12:55:10;;;;;;;5.20;2.72;;;26.50;58.40;;;;;;4667549;30;20058;-86
2022/06/20 12:58:09;;;;;;;3.92;2.65;;;26.50;52.30;;;;;;4667564;30;20046;-86
2022/06/20 13:00:39;;;;;;;5.07;2.88;;;26.00;55.70;;;;;;4667547;30;20510;-86
2022/06/20 13:03:48;;;;;;;4.40;2.95;;;25.40;57.30;;;;;;4681472;30;20046;-87
2022/06/20 13:06:47;;;;;;;4.95;2.92;;;24.90;58.10;;;;;;4667048;30;20514;-88
2022/06/20 13:09:58;;;;;;;4.57;2.75;;;24.80;58.10;;;;;;4681314;30;20414;-86
2022/06/20 13:12:29;;;;;;;4.68;2.80;;;24.90;58.20;;;;;;4653989;30;20597;-84
2022/06/20 13:15:32;;;;;;;4.82;3.08;;;25.00;58.10;;;;;;4681452;30;20060;-86
2022/06/20 13:18:04;;;;;;;4.28;3.00;;;25.10;58.30;;;;;;4681026;30;20136;-86
2022/06/20 13:20:49;;;;;;;5.53;3.30;;;24.90;58.90;;;;;;4681298;30;20060;-84
2022/06/20 13:23:14;;;;;;;5.70;3.05;;;25.00;60.40;;;;;;4681399;30;20046;-86
2022/06/20 13:26:24;;;;;;;5.97;3.13;;;25.30;60.00;;;;;;4681531;30;20148;-85
2022/06/20 13:29:03;;;;;;;4.60;3.10;;;25.40;58.00;;;;;;4664925;30;20565;-85
2022/06/20 13:31:41;;;;;;;5.72;3.28;;;25.10;59.30;;;;;;4667038;30;20506;-85
2022/06/20 13:34:13;;;;;;;4.43;3.28;;;25.20;58.60;;;;;;4666743;30;20533;-85
2022/06/20 13:36:47;;;;;;;5.07;2.90;;;25.30;59.10;;;;;;4681078;30;20088;-85
2022/06/20 13:39:19;;;;;;;4.30;3.13;;;25.40;58.70;;;;;;4680847;30;20296;-85
2022/06/20 13:41:49;;;;;;;4.53;2.85;;;25.60;60.00;;;;;;4680750;30;20056;-85
2022/06/20 13:44:37;;;;;;;3.70;2.92;;;25.80;58.60;;;;;;4666936;30;20073;-86
2022/06/20 13:47:31;;;;;;;4.30;3.38;;;25.90;57.80;;;;;;4666784;30;20042;-84
2022/06/20 13:50:13;;;;;;;4.18;2.63;;;26.00;57.30;;;;;;4674575;30;20054;-85
2022/06/20 13:53:04;;;;;;;5.47;2.38;;;26.00;55.10;;;;;;4680862;30;20053;-85
2022/06/20 13:55:43;;;;;;;2.83;2.50;;;25.90;56.70;;;;;;4680997;30;20138;-84
2022/06/20 13:58:12;;;;;;;5.53;3.00;;;25.60;56.60;;;;;;4666456;30;20050;-87
2022/06/20 14:00:38;;;;;;;3.47;2.50;;;25.60;56.50;;;;;;4680645;30;20089;-85